Time;durP1;ratioP1;P1;durP2;ratioP2;P2;SDS_P1;SDS_P2;PMS_P1;PMS_P2;Temp;Humidity;BMP_temperature;BMP_pressure;BME280_temperature;BME280_humidity;BME280_pressure;Samples;Min_cycle;Max_cycle;Signal;HPM_P1;HPM_P2
2022/10/09 00:01:11;;;;;;;11.00;2.78;;;;;;;11.17;50.09;102544.72;7395720;19;20007;-58
2022/10/09 00:03:39;;;;;;;10.52;2.90;;;;;;;11.10;50.32;102543.22;7394534;19;20003;-58
2022/10/09 00:06:10;;;;;;;14.52;3.63;;;;;;;11.15;50.25;102549.69;7393699;19;20010;-58
2022/10/09 00:08:42;;;;;;;10.98;2.97;;;;;;;11.08;50.26;102545.41;7390832;19;20005;-58
2022/10/09 00:11:14;;;;;;;15.15;3.13;;;;;;;11.18;50.00;102549.88;7395193;19;20006;-58
2022/10/09 00:13:40;;;;;;;9.82;2.92;;;;;;;11.17;49.97;102556.47;7393980;19;19995;-58
2022/10/09 00:16:11;;;;;;;12.82;2.70;;;;;;;11.13;49.94;102560.09;7395277;19;20002;-58
2022/10/09 00:18:37;;;;;;;10.43;3.08;;;;;;;11.07;50.07;102560.22;7393602;19;20014;-58
2022/10/09 00:21:04;;;;;;;13.38;3.28;;;;;;;11.10;50.00;102561.50;7394447;19;19991;-59
2022/10/09 00:23:29;;;;;;;10.75;2.95;;;;;;;10.92;50.47;102565.94;7389444;19;20396;-58
2022/10/09 00:25:58;;;;;;;9.32;2.92;;;;;;;10.86;50.63;102570.69;7394574;19;19990;-58
2022/10/09 00:28:25;;;;;;;11.07;3.00;;;;;;;10.88;50.95;102567.66;7391909;19;20078;-58
2022/10/09 00:30:51;;;;;;;8.93;2.33;;;;;;;11.20;49.92;102563.25;7394040;19;20002;-58
2022/10/09 00:33:17;;;;;;;11.13;3.33;;;;;;;11.25;49.79;102568.59;7393459;19;20462;-57
2022/10/09 00:35:43;;;;;;;11.95;3.00;;;;;;;11.16;49.80;102567.72;7393888;19;20007;-58
2022/10/09 00:38:10;;;;;;;7.07;2.33;;;;;;;11.19;49.65;102567.06;7391971;19;20410;-58
2022/10/09 00:40:36;;;;;;;12.85;3.45;;;;;;;11.20;49.76;102569.50;7392231;19;20040;-59
2022/10/09 00:43:03;;;;;;;10.35;3.05;;;;;;;11.01;50.32;102568.78;7392928;19;20006;-59
2022/10/09 00:45:30;;;;;;;10.93;2.97;;;;;;;11.00;50.21;102576.16;7392148;19;20003;-58
2022/10/09 00:48:00;;;;;;;14.20;2.80;;;;;;;10.93;50.23;102578.47;7391515;19;20016;-58
2022/10/09 00:50:34;;;;;;;7.75;2.60;;;;;;;10.97;50.39;102573.22;7391656;19;19999;-58
2022/10/09 00:53:02;;;;;;;12.57;2.90;;;;;;;11.02;50.24;102579.44;7393589;19;19999;-57
2022/10/09 00:55:28;;;;;;;8.18;2.22;;;;;;;11.03;50.22;102581.03;7393591;19;20002;-58
2022/10/09 00:57:56;;;;;;;8.48;2.80;;;;;;;10.89;50.33;102580.22;7392665;19;20014;-58
2022/10/09 01:00:22;;;;;;;10.60;2.95;;;;;;;10.90;50.53;102579.91;7391168;19;20006;-57
2022/10/09 01:02:48;;;;;;;13.10;2.63;;;;;;;11.01;50.05;102577.78;7391255;19;19998;-57
2022/10/09 01:05:14;;;;;;;12.85;2.80;;;;;;;10.88;50.55;102586.78;7392895;19;20058;-57
2022/10/09 01:07:58;;;;;;;13.30;2.92;;;;;;;10.79;50.61;102581.19;7392689;19;20006;-58
2022/10/09 01:10:55;;;;;;;10.18;2.63;;;;;;;10.83;50.63;102581.41;7391006;19;20002;-61
2022/10/09 01:13:25;;;;;;;11.57;3.10;;;;;;;10.88;50.40;102584.03;7391851;19;20066;-58
2022/10/09 01:15:55;;;;;;;9.43;2.60;;;;;;;10.69;50.76;102582.13;7393588;19;20455;-57
2022/10/09 01:18:25;;;;;;;11.38;2.60;;;;;;;10.85;50.52;102573.72;7391660;19;20034;-57
2022/10/09 01:21:07;;;;;;;11.40;3.03;;;;;;;10.84;50.34;102572.91;7391483;19;20022;-59
2022/10/09 01:23:51;;;;;;;9.70;2.85;;;;;;;10.84;50.40;102572.09;7391850;19;20070;-58
2022/10/09 01:26:26;;;;;;;9.02;2.88;;;;;;;10.84;50.00;102570.19;7392569;19;20345;-58
2022/10/09 01:28:56;;;;;;;14.63;3.13;;;;;;;10.76;50.62;102567.34;7388437;19;20006;-58
2022/10/09 01:31:25;;;;;;;17.30;3.17;;;;;;;10.87;50.32;102560.56;7392805;19;20002;-58
2022/10/09 01:33:50;;;;;;;11.82;3.75;;;;;;;10.81;50.17;102568.03;7388406;19;20011;-58
2022/10/09 01:36:17;;;;;;;10.75;3.00;;;;;;;10.87;50.28;102563.28;7389339;19;20038;-58
2022/10/09 01:38:44;;;;;;;13.65;3.00;;;;;;;10.77;50.59;102571.66;7390978;19;20002;-58
2022/10/09 01:41:10;;;;;;;11.02;2.90;;;;;;;10.64;50.78;102571.31;7391888;19;20495;-58
2022/10/09 01:43:36;;;;;;;11.95;3.25;;;;;;;10.77;50.62;102569.75;7388970;19;20002;-58
2022/10/09 01:46:23;;;;;;;13.98;2.80;;;;;;;10.81;50.58;102569.97;7392712;19;20013;-58
2022/10/09 01:49:04;;;;;;;13.50;3.22;;;;;;;10.77;50.40;102566.19;7390011;19;19999;-58
2022/10/09 01:51:38;;;;;;;14.15;2.90;;;;;;;10.77;50.56;102572.50;7389755;19;20017;-59
2022/10/09 01:54:08;;;;;;;14.48;2.95;;;;;;;10.74;50.35;102562.13;7390547;19;20070;-58
2022/10/09 01:56:37;;;;;;;11.05;3.03;;;;;;;10.70;50.85;102566.56;7391177;19;20055;-58
2022/10/09 01:59:10;;;;;;;13.40;3.50;;;;;;;10.67;50.83;102573.44;7389030;19;20002;-60
2022/10/09 02:01:38;;;;;;;12.48;3.30;;;;;;;10.66;50.62;102573.75;7389911;19;20002;-58
2022/10/09 02:04:09;;;;;;;10.25;2.78;;;;;;;10.73;50.60;102571.41;7389759;19;20042;-60
2022/10/09 02:06:37;;;;;;;12.95;3.08;;;;;;;10.75;50.78;102566.47;7391430;19;20009;-59
2022/10/09 02:09:08;;;;;;;9.48;2.92;;;;;;;10.77;50.62;102568.94;7388666;19;19999;-57
2022/10/09 02:11:34;;;;;;;11.27;3.92;;;;;;;10.75;50.64;102571.94;7389563;19;20104;-57
2022/10/09 02:14:00;;;;;;;13.57;3.72;;;;;;;10.67;50.77;102567.97;7389725;19;20046;-57
2022/10/09 02:16:39;;;;;;;11.18;3.30;;;;;;;10.62;50.94;102564.50;7390405;19;20006;-59
2022/10/09 02:19:14;;;;;;;11.52;2.92;;;;;;;10.60;50.91;102574.91;7389593;19;20010;-58
2022/10/09 02:21:49;;;;;;;9.60;3.03;;;;;;;10.59;50.90;102563.19;7391691;19;20095;-59
2022/10/09 02:24:18;;;;;;;14.68;3.67;;;;;;;10.67;50.92;102567.97;7389565;19;20010;-59
2022/10/09 02:26:44;;;;;;;9.88;3.30;;;;;;;10.69;50.37;102560.28;7390569;19;20003;-59
2022/10/09 02:29:11;;;;;;;11.93;3.03;;;;;;;10.61;50.59;102563.69;7388328;19;20027;-59
2022/10/09 02:31:39;;;;;;;12.00;3.38;;;;;;;10.60;50.77;102564.81;7389429;19;20066;-59
2022/10/09 02:34:07;;;;;;;10.57;3.58;;;;;;;10.57;50.71;102558.03;7388947;19;20002;-56
2022/10/09 02:36:33;;;;;;;13.77;3.95;;;;;;;10.46;51.14;102553.03;7390883;19;20085;-55
2022/10/09 02:39:00;;;;;;;11.23;3.03;;;;;;;10.34;51.45;102554.31;7390710;19;19995;-58
2022/10/09 02:41:25;;;;;;;13.15;3.00;;;;;;;10.42;51.26;102560.19;7390457;19;20013;-55
2022/10/09 02:43:51;;;;;;;13.05;3.05;;;;;;;10.51;50.85;102558.41;7388851;19;20003;-56
2022/10/09 02:46:17;;;;;;;8.55;2.92;;;;;;;10.59;50.58;102565.94;7393591;19;20464;-55
2022/10/09 02:48:43;;;;;;;16.05;3.67;;;;;;;10.54;51.03;102566.00;7395381;19;20009;-56
2022/10/09 02:51:09;;;;;;;15.57;3.35;;;;;;;10.44;50.97;102552.53;7396757;19;20006;-59
2022/10/09 02:53:35;;;;;;;9.63;3.03;;;;;;;10.28;51.37;102565.59;7396975;19;20354;-59
2022/10/09 02:56:10;;;;;;;11.60;3.35;;;;;;;10.16;51.56;102564.13;7393972;19;20022;-56
2022/10/09 02:58:36;;;;;;;14.88;3.58;;;;;;;10.08;51.86;102566.72;7394329;19;19998;-57
2022/10/09 03:01:03;;;;;;;10.05;3.58;;;;;;;10.00;51.96;102566.28;7394794;19;20043;-59
2022/10/09 03:03:29;;;;;;;10.95;3.13;;;;;;;10.05;52.03;102561.84;7394029;19;20003;-57
2022/10/09 03:06:09;;;;;;;11.23;3.85;;;;;;;9.95;52.08;102557.31;7396836;19;19999;-56
2022/10/09 03:08:38;;;;;;;10.18;3.42;;;;;;;9.99;51.77;102556.44;7392808;19;20010;-56
2022/10/09 03:11:04;;;;;;;11.25;3.60;;;;;;;10.05;51.67;102562.66;7395188;19;20070;-56
2022/10/09 03:13:30;;;;;;;10.27;3.70;;;;;;;10.19;51.24;102573.66;7395651;19;20002;-58
2022/10/09 03:16:02;;;;;;;15.98;3.45;;;;;;;10.11;51.20;102564.19;7396274;19;20019;-59
2022/10/09 03:18:28;;;;;;;12.35;3.17;;;;;;;10.14;51.55;102565.53;7395840;19;20058;-59
2022/10/09 03:20:53;;;;;;;11.20;3.38;;;;;;;10.21;51.30;102565.97;7396559;19;20479;-58
2022/10/09 03:23:19;;;;;;;11.02;3.97;;;;;;;10.04;51.59;102569.22;7395262;19;20002;-58
2022/10/09 03:25:54;;;;;;;10.10;3.50;;;;;;;9.90;51.68;102571.88;7396258;19;20002;-58
2022/10/09 03:28:26;;;;;;;14.50;4.90;;;;;;;9.92;51.81;102577.03;7393999;19;20010;-59
2022/10/09 03:30:58;;;;;;;15.80;7.18;;;;;;;9.95;51.92;102579.97;7395259;19;20082;-59
2022/10/09 03:33:23;;;;;;;17.25;6.70;;;;;;;9.92;51.80;102580.56;7395645;19;20467;-58
2022/10/09 03:35:49;;;;;;;13.13;5.53;;;;;;;9.91;51.87;102581.66;7393975;19;20002;-58
2022/10/09 03:38:15;;;;;;;13.60;5.22;;;;;;;9.77;52.17;102594.41;7395025;19;20030;-59
2022/10/09 03:40:41;;;;;;;14.82;4.75;;;;;;;9.91;51.82;102587.09;7393659;19;20263;-58
2022/10/09 03:43:07;;;;;;;13.00;4.47;;;;;;;9.89;51.75;102589.31;7395560;19;19998;-58
2022/10/09 03:45:33;;;;;;;10.70;4.30;;;;;;;9.91;51.79;102589.84;7395405;19;20286;-58
2022/10/09 03:47:58;;;;;;;14.32;4.40;;;;;;;9.89;51.75;102589.31;7394236;19;20475;-59
2022/10/09 03:50:24;;;;;;;14.88;4.65;;;;;;;10.08;51.51;102594.00;7394973;19;20477;-59
2022/10/09 03:52:49;;;;;;;18.25;4.80;;;;;;;10.04;51.49;102601.16;7394314;19;20078;-57
2022/10/09 03:55:15;;;;;;;15.38;4.63;;;;;;;10.01;51.46;102591.63;7394420;19;20459;-57
2022/10/09 03:57:40;;;;;;;9.07;3.88;;;;;;;9.92;51.71;102601.59;7392416;19;19990;-57
2022/10/09 04:00:07;;;;;;;12.77;4.30;;;;;;;10.06;51.40;102596.19;7395166;19;20317;-57
2022/10/09 04:02:33;;;;;;;10.13;3.85;;;;;;;10.18;51.12;102604.75;7394074;19;20482;-57
2022/10/09 04:04:59;;;;;;;12.65;4.18;;;;;;;10.13;51.25;102597.44;7394685;19;20505;-57
2022/10/09 04:07:24;;;;;;;10.93;4.15;;;;;;;10.18;51.13;102588.38;7393684;19;19998;-57
2022/10/09 04:09:50;;;;;;;12.68;4.43;;;;;;;10.04;51.42;102595.69;7395131;19;20021;-57
2022/10/09 04:12:15;;;;;;;13.90;4.43;;;;;;;9.85;52.16;102596.50;7394304;19;20435;-57
2022/10/09 04:14:41;;;;;;;13.70;4.18;;;;;;;9.93;51.56;102598.53;7392378;19;20347;-57
2022/10/09 04:17:06;;;;;;;13.25;4.30;;;;;;;9.94;51.61;102600.16;7392676;19;20498;-57
2022/10/09 04:19:32;;;;;;;12.07;4.10;;;;;;;9.99;51.45;102602.81;7394125;19;20025;-57
2022/10/09 04:21:58;;;;;;;16.00;4.60;;;;;;;10.03;51.52;102602.25;7394376;19;20323;-57
2022/10/09 04:24:23;;;;;;;9.75;4.50;;;;;;;10.14;51.26;102611.91;7390310;19;20316;-57
2022/10/09 04:26:49;;;;;;;11.80;4.43;;;;;;;9.97;51.54;102607.78;7394207;19;20316;-57
2022/10/09 04:29:14;;;;;;;16.42;5.10;;;;;;;10.01;51.60;102613.44;7390862;19;20010;-57
2022/10/09 04:31:40;;;;;;;12.73;4.10;;;;;;;9.96;51.64;102614.31;7394380;19;20011;-57
2022/10/09 04:34:05;;;;;;;15.27;4.93;;;;;;;9.96;51.53;102619.78;7392627;19;20018;-57
2022/10/09 04:36:31;;;;;;;12.57;5.22;;;;;;;9.91;51.70;102608.94;7393782;19;20006;-57
2022/10/09 04:38:56;;;;;;;13.65;4.93;;;;;;;9.97;51.69;102606.97;7392318;19;20019;-57
2022/10/09 04:41:22;;;;;;;16.73;4.63;;;;;;;9.93;51.67;102605.91;7393641;19;20018;-57
2022/10/09 04:43:47;;;;;;;12.25;4.80;;;;;;;9.87;51.92;102605.19;7390019;19;20007;-57
2022/10/09 04:46:14;;;;;;;12.50;4.93;;;;;;;9.80;51.79;102607.44;7391941;19;19995;-57
2022/10/09 04:48:41;;;;;;;18.05;5.15;;;;;;;9.68;52.21;102609.78;7389287;19;20493;-57
2022/10/09 04:51:08;;;;;;;11.05;4.90;;;;;;;9.65;52.31;102608.47;7392589;19;20013;-56
2022/10/09 04:53:35;;;;;;;13.05;5.05;;;;;;;9.59;52.33;102610.41;7390912;19;20082;-57
2022/10/09 04:56:03;;;;;;;15.65;5.22;;;;;;;9.56;52.46;102600.06;7393591;19;20017;-57
2022/10/09 04:58:30;;;;;;;12.60;5.00;;;;;;;9.61;52.14;102599.22;7390888;19;20006;-57
2022/10/09 05:00:56;;;;;;;12.90;5.35;;;;;;;9.68;52.07;102607.03;7391223;19;20002;-57
2022/10/09 05:03:22;;;;;;;13.77;5.32;;;;;;;9.74;51.55;102598.50;7393193;19;20010;-57
2022/10/09 05:05:47;;;;;;;12.68;5.68;;;;;;;9.70;51.76;102596.66;7392220;19;20371;-57
2022/10/09 05:08:13;;;;;;;18.55;6.05;;;;;;;9.55;52.32;102593.00;7390331;19;19999;-57
2022/10/09 05:10:38;;;;;;;13.52;5.20;;;;;;;9.55;51.94;102593.00;7390736;19;19998;-57
2022/10/09 05:13:04;;;;;;;15.50;5.07;;;;;;;9.51;52.12;102597.38;7392381;19;20045;-57
2022/10/09 05:15:29;;;;;;;13.07;5.00;;;;;;;9.50;52.26;102594.94;7393122;19;20347;-57
2022/10/09 05:17:56;;;;;;;10.95;5.32;;;;;;;9.53;52.24;102595.16;7391555;19;19999;-57
2022/10/09 05:20:21;;;;;;;13.00;4.90;;;;;;;9.54;51.94;102596.81;7390992;19;20003;-57
2022/10/09 05:22:47;;;;;;;12.13;5.30;;;;;;;9.45;52.31;102601.28;7391728;19;20010;-57
2022/10/09 05:25:12;;;;;;;11.00;4.68;;;;;;;9.48;51.91;102592.50;7392114;19;20484;-57
2022/10/09 05:27:38;;;;;;;11.68;4.90;;;;;;;9.36;52.27;102597.56;7391672;19;19998;-57
2022/10/09 05:30:05;;;;;;;15.38;5.43;;;;;;;9.52;51.92;102603.66;7389746;19;19999;-57
2022/10/09 05:32:30;;;;;;;16.55;5.28;;;;;;;9.49;51.98;102605.06;7390832;19;20505;-57
2022/10/09 05:34:56;;;;;;;11.82;5.03;;;;;;;9.64;51.50;102604.91;7390278;19;19999;-57
2022/10/09 05:37:21;;;;;;;15.27;5.53;;;;;;;9.67;51.52;102610.88;7391375;19;20022;-57
2022/10/09 05:39:47;;;;;;;14.60;5.47;;;;;;;9.58;51.98;102606.06;7388981;19;20416;-57
2022/10/09 05:42:12;;;;;;;17.52;5.65;;;;;;;9.45;52.20;102614.91;7391484;19;19990;-57
2022/10/09 05:44:38;;;;;;;12.10;5.15;;;;;;;9.55;51.72;102609.34;7390423;19;20007;-57
2022/10/09 05:47:03;;;;;;;16.55;5.68;;;;;;;9.55;51.83;102620.25;7391450;19;19999;-57
2022/10/09 05:49:29;;;;;;;18.55;5.75;;;;;;;9.65;51.73;102613.91;7386847;19;19990;-57
2022/10/09 05:51:54;;;;;;;14.20;4.82;;;;;;;9.71;51.39;102611.91;7390775;19;20018;-58
2022/10/09 05:54:20;;;;;;;14.55;5.60;;;;;;;9.57;51.63;102607.13;7389931;19;20076;-58
2022/10/09 05:56:45;;;;;;;13.27;5.20;;;;;;;9.55;51.73;102609.34;7391570;19;19998;-59
2022/10/09 05:59:14;;;;;;;14.13;5.25;;;;;;;9.64;51.51;102610.34;7390749;19;20109;-58
2022/10/09 06:01:43;;;;;;;14.73;5.05;;;;;;;9.59;51.31;102604.97;7389863;19;20023;-58
2022/10/09 06:04:14;;;;;;;11.70;4.93;;;;;;;9.41;51.92;102611.13;7390015;19;20022;-58
2022/10/09 06:06:40;;;;;;;12.18;5.03;;;;;;;9.35;52.15;102612.28;7392424;19;20027;-58
2022/10/09 06:09:07;;;;;;;12.23;5.15;;;;;;;9.32;52.52;102616.41;7386660;19;20016;-58
2022/10/09 06:11:35;;;;;;;13.30;4.97;;;;;;;9.46;51.93;102611.88;7390309;19;19994;-59
2022/10/09 06:14:03;;;;;;;13.90;4.90;;;;;;;9.34;52.34;102610.66;7390904;19;20012;-58
2022/10/09 06:16:31;;;;;;;12.82;5.25;;;;;;;9.42;52.17;102610.03;7388718;19;20003;-58
2022/10/09 06:18:57;;;;;;;14.25;5.80;;;;;;;9.54;51.65;102606.91;7389842;19;20443;-58
2022/10/09 06:21:25;;;;;;;12.77;5.20;;;;;;;9.58;51.67;102607.94;7394902;19;19994;-59
2022/10/09 06:23:54;;;;;;;9.68;4.35;;;;;;;9.62;51.66;102620.75;7396723;19;20035;-60
2022/10/09 06:26:23;;;;;;;11.05;5.38;;;;;;;9.58;51.76;102618.84;7397487;19;20001;-59
2022/10/09 06:28:49;;;;;;;16.30;4.95;;;;;;;9.54;51.78;102617.81;7370429;19;20070;-59
2022/10/09 06:31:17;;;;;;;14.15;5.28;;;;;;;9.69;51.67;102619.59;7394601;19;20487;-59
2022/10/09 06:33:44;;;;;;;16.88;5.63;;;;;;;9.83;51.20;102625.94;7395220;19;20007;-59
2022/10/09 06:36:16;;;;;;;14.63;5.32;;;;;;;9.77;51.53;102627.13;7397413;19;20014;-59
2022/10/09 06:38:41;;;;;;;12.00;4.68;;;;;;;9.73;51.54;102629.59;7395489;19;20003;-59
2022/10/09 06:41:13;;;;;;;12.60;5.57;;;;;;;9.70;51.57;102626.66;7397231;19;20022;-59
2022/10/09 06:43:39;;;;;;;12.90;5.60;;;;;;;9.82;51.37;102632.53;7344503;19;1005166;-65
2022/10/09 06:46:10;;;;;;;15.63;5.50;;;;;;;9.86;51.47;102630.81;7397215;19;20007;-59
2022/10/09 06:48:36;;;;;;;16.13;5.47;;;;;;;9.87;51.34;102637.06;7372527;19;20017;-59
2022/10/09 06:51:04;;;;;;;15.98;5.70;;;;;;;9.86;51.61;102633.53;7397358;19;20003;-59
2022/10/09 06:53:29;;;;;;;16.45;5.75;;;;;;;9.93;51.67;102627.72;7396896;19;20009;-58
2022/10/09 06:55:56;;;;;;;19.98;6.13;;;;;;;10.10;51.01;102630.81;7397375;19;20070;-58
2022/10/09 06:58:22;;;;;;;11.40;5.97;;;;;;;10.09;51.34;102633.81;7396004;19;20013;-59
2022/10/09 07:00:47;;;;;;;14.00;6.20;;;;;;;10.07;51.37;102641.47;7395328;19;20002;-59
2022/10/09 07:03:14;;;;;;;12.00;5.50;;;;;;;10.15;51.16;102644.38;7395688;19;20011;-58
2022/10/09 07:05:40;;;;;;;16.55;6.35;;;;;;;10.12;51.20;102634.03;7395110;19;20086;-59
2022/10/09 07:08:06;;;;;;;15.20;5.78;;;;;;;10.12;51.27;102638.69;7395027;19;19998;-59
2022/10/09 07:10:32;;;;;;;17.58;6.10;;;;;;;10.17;51.37;102638.63;7395757;19;20039;-58
2022/10/09 07:12:57;;;;;;;12.00;5.72;;;;;;;10.25;51.04;102632.50;7393734;19;20002;-58
2022/10/09 07:15:23;;;;;;;13.90;5.50;;;;;;;10.22;51.26;102644.00;7396677;19;20003;-59
2022/10/09 07:17:48;;;;;;;13.90;6.57;;;;;;;10.19;51.14;102637.22;7394856;19;20003;-58
2022/10/09 07:20:14;;;;;;;12.88;5.72;;;;;;;10.20;51.36;102643.47;7393490;19;20017;-58
2022/10/09 07:22:39;;;;;;;21.92;6.57;;;;;;;10.38;51.23;102656.34;7395399;19;20010;-59
2022/10/09 07:25:05;;;;;;;13.65;6.30;;;;;;;10.37;51.36;102646.53;7396461;19;20447;-58
2022/10/09 07:27:32;;;;;;;14.60;6.53;;;;;;;10.40;51.48;102652.50;7395959;19;19998;-58
2022/10/09 07:29:58;;;;;;;16.23;6.45;;;;;;;10.40;51.28;102647.03;7392992;19;20019;-59
2022/10/09 07:32:24;;;;;;;15.35;6.50;;;;;;;10.32;51.73;102646.59;7394373;19;20042;-59
2022/10/09 07:34:49;;;;;;;18.50;6.63;;;;;;;10.40;51.36;102657.94;7392444;19;20333;-59
2022/10/09 07:37:15;;;;;;;19.05;6.35;;;;;;;10.47;51.24;102651.03;7395940;19;20002;-59
2022/10/09 07:39:40;;;;;;;12.63;5.10;;;;;;;10.58;51.01;102659.88;7395166;19;20458;-59
2022/10/09 07:42:06;;;;;;;15.85;5.75;;;;;;;10.58;51.25;102665.31;7395999;19;20513;-59
2022/10/09 07:44:32;;;;;;;17.08;6.13;;;;;;;10.57;51.04;102661.78;7392259;19;20002;-59
2022/10/09 07:46:58;;;;;;;15.52;6.18;;;;;;;10.58;51.00;102668.06;7395083;19;19995;-59
2022/10/09 07:49:23;;;;;;;12.45;5.68;;;;;;;10.65;51.33;102668.50;7391017;19;20345;-59
2022/10/09 07:51:49;;;;;;;12.90;6.40;;;;;;;10.59;51.22;102677.06;7392967;19;20046;-59
2022/10/09 07:54:15;;;;;;;12.70;6.00;;;;;;;10.56;51.34;102664.81;7393328;19;20066;-59
2022/10/09 07:56:40;;;;;;;14.80;6.07;;;;;;;10.72;51.10;102673.59;7394384;19;20487;-59
2022/10/09 07:59:10;;;;;;;16.65;6.60;;;;;;;10.73;50.98;102667.81;7394894;19;20029;-59
2022/10/09 08:01:37;;;;;;;12.70;6.20;;;;;;;10.80;51.14;102670.19;7395177;19;19998;-59
2022/10/09 08:04:04;;;;;;;11.07;5.55;;;;;;;10.84;50.79;102675.91;7393766;19;20394;-60
2022/10/09 08:06:30;;;;;;;15.07;6.03;;;;;;;10.90;51.00;102674.69;7393771;19;20459;-60
2022/10/09 08:11:41;;;;;;;16.08;6.03;;;;;;;10.84;51.13;102673.19;7391333;19;20085;-61
2022/10/09 08:14:11;;;;;;;16.20;5.55;;;;;;;11.01;50.68;102684.34;7393525;19;20012;-61
2022/10/09 08:16:36;;;;;;;16.40;6.65;;;;;;;11.13;50.60;102672.16;7395366;19;20013;-61
2022/10/09 08:19:02;;;;;;;13.75;5.57;;;;;;;11.15;50.93;102678.94;7393392;19;20530;-61
2022/10/09 08:21:28;;;;;;;14.75;5.70;;;;;;;11.23;50.42;102671.97;7390577;19;20003;-61
2022/10/09 08:23:56;;;;;;;15.20;5.68;;;;;;;11.17;50.92;102673.16;7392377;19;20315;-61
2022/10/09 08:26:23;;;;;;;12.32;5.95;;;;;;;11.15;50.92;102678.13;7398582;19;20477;-62
2022/10/09 08:28:54;;;;;;;14.00;5.47;;;;;;;11.36;50.42;102671.19;7391330;19;20009;-61
2022/10/09 08:31:20;;;;;;;14.63;5.85;;;;;;;11.35;50.46;102677.75;7390832;19;19994;-61
2022/10/09 08:33:46;;;;;;;15.75;5.95;;;;;;;11.39;50.73;102672.50;7393984;19;20003;-61
2022/10/09 08:36:14;;;;;;;17.83;6.35;;;;;;;11.40;50.62;102674.13;7394601;19;20081;-61
2022/10/09 08:38:40;;;;;;;14.30;5.90;;;;;;;11.59;50.23;102674.03;7393030;19;20337;-61
2022/10/09 08:41:36;;;;;;;12.07;5.55;;;;;;;11.65;50.78;102675.56;7391095;19;19999;-62
2022/10/09 08:44:09;;;;;;;15.32;5.55;;;;;;;11.72;50.43;102673.25;7392545;19;19998;-62
2022/10/09 08:46:50;;;;;;;13.03;5.90;;;;;;;11.68;50.84;102662.09;7393306;19;20483;-61
2022/10/09 08:49:41;;;;;;;14.27;5.55;;;;;;;11.82;50.55;102664.84;7388557;19;20463;-61
2022/10/09 08:52:20;;;;;;;13.95;5.10;;;;;;;11.88;50.69;102662.03;7393500;19;20685;-61
2022/10/09 08:54:46;;;;;;;11.85;4.75;;;;;;;11.98;50.17;102665.38;7391597;19;20331;-61
2022/10/09 08:57:14;;;;;;;14.45;4.95;;;;;;;12.02;50.43;102663.66;7393898;19;19994;-61
2022/10/09 08:59:40;;;;;;;13.95;4.40;;;;;;;12.04;50.33;102655.16;7391952;19;20010;-59
2022/10/09 09:02:30;;;;;;;15.02;4.93;;;;;;;12.09;50.00;102657.78;7393285;19;20002;-58
2022/10/09 09:05:26;;;;;;;16.40;4.50;;;;;;;12.19;49.69;102663.03;7392990;19;20083;-58
2022/10/09 09:08:10;;;;;;;11.85;4.28;;;;;;;12.13;50.08;102652.50;7393553;19;20031;-59
2022/10/09 09:10:39;;;;;;;12.38;4.60;;;;;;;12.26;49.64;102656.28;7391668;19;20014;-60
2022/10/09 09:13:16;;;;;;;12.52;5.35;;;;;;;12.31;49.79;102656.22;7390855;19;20471;-60
2022/10/09 09:16:02;;;;;;;18.70;4.43;;;;;;;12.44;49.41;102649.88;7392485;19;20036;-59
2022/10/09 09:18:39;;;;;;;13.13;3.75;;;;;;;12.52;49.27;102646.38;7393066;19;20010;-59
2022/10/09 09:21:29;;;;;;;12.93;4.15;;;;;;;12.54;49.05;102644.16;7391322;19;20010;-60
2022/10/09 09:23:58;;;;;;;12.85;3.92;;;;;;;12.52;49.25;102649.13;7392343;19;20550;-60
2022/10/09 09:26:23;;;;;;;11.65;4.00;;;;;;;12.66;48.99;102640.03;7391807;19;20066;-60
2022/10/09 09:28:54;;;;;;;10.95;3.90;;;;;;;12.76;48.87;102635.13;7393367;19;20048;-60
2022/10/09 09:31:35;;;;;;;9.80;3.90;;;;;;;12.75;48.82;102640.94;7395567;19;20002;-61
2022/10/09 09:34:15;;;;;;;18.45;4.60;;;;;;;12.85;48.80;102645.34;7392398;19;19999;-60
2022/10/09 09:36:54;;;;;;;14.23;4.00;;;;;;;12.84;48.87;102643.72;7390608;19;20002;-60
2022/10/09 09:39:22;;;;;;;13.20;4.10;;;;;;;12.82;49.15;102637.75;7390899;19;20354;-60
2022/10/09 09:42:00;;;;;;;16.10;4.68;;;;;;;12.89;48.82;102633.50;7392294;19;20020;-61
2022/10/09 09:44:29;;;;;;;11.13;3.55;;;;;;;13.06;48.45;102640.19;7390376;19;20483;-60
2022/10/09 09:46:56;;;;;;;16.13;4.25;;;;;;;13.14;48.37;102636.69;7392015;19;19998;-60
2022/10/09 09:49:26;;;;;;;11.48;3.20;;;;;;;13.17;48.26;102630.56;7388490;19;20490;-59
2022/10/09 09:51:55;;;;;;;12.40;3.15;;;;;;;13.04;48.70;102618.59;7393240;19;20074;-60
2022/10/09 09:54:23;;;;;;;12.63;3.05;;;;;;;13.21;48.15;102628.00;7389198;19;20011;-58
2022/10/09 09:56:51;;;;;;;10.27;2.78;;;;;;;13.20;48.26;102631.88;7389029;19;20082;-59
2022/10/09 09:59:37;;;;;;;11.07;2.60;;;;;;;13.30;47.86;102617.91;7390716;19;20070;-60
2022/10/09 10:02:05;;;;;;;10.88;2.47;;;;;;;13.35;47.70;102622.44;7391869;19;20030;-60
2022/10/09 10:04:31;;;;;;;13.88;2.55;;;;;;;13.28;47.51;102610.00;7391124;19;20007;-60
2022/10/09 10:06:57;;;;;;;9.30;2.67;;;;;;;13.32;47.55;102613.69;7391787;19;20013;-60
2022/10/09 10:09:23;;;;;;;13.15;2.78;;;;;;;13.45;47.20;102605.69;7386460;19;20492;-61
2022/10/09 10:12:02;;;;;;;9.52;2.88;;;;;;;13.52;47.55;102600.56;7387563;19;20019;-60
2022/10/09 10:14:30;;;;;;;10.80;2.92;;;;;;;13.49;47.35;102599.28;7389674;19;20511;-60
2022/10/09 10:16:57;;;;;;;10.27;2.30;;;;;;;13.44;47.21;102604.06;7391155;19;19994;-60
2022/10/09 10:19:28;;;;;;;6.35;1.73;;;;;;;13.42;46.83;102606.34;7390024;19;20006;-60
2022/10/09 10:21:59;;;;;;;9.25;1.65;;;;;;;13.44;46.57;102598.59;7390592;19;19991;-60
2022/10/09 10:24:32;;;;;;;7.85;1.52;;;;;;;13.45;46.33;102605.69;7390983;19;20006;-60
2022/10/09 10:27:08;;;;;;;7.55;1.60;;;;;;;13.38;45.79;102594.38;7391292;19;20009;-60
2022/10/09 10:29:41;;;;;;;11.88;1.92;;;;;;;13.43;46.37;102597.78;7388323;19;19999;-59
2022/10/09 10:32:31;;;;;;;9.35;1.60;;;;;;;13.55;45.67;102596.38;7388773;19;19987;-59
2022/10/09 10:35:02;;;;;;;9.65;1.77;;;;;;;13.65;45.70;102585.91;7389549;19;19999;-59
2022/10/09 10:37:48;;;;;;;8.13;1.65;;;;;;;13.81;45.42;102596.44;7389515;19;20515;-59
2022/10/09 10:40:29;;;;;;;11.13;2.05;;;;;;;13.75;45.15;102584.00;7387487;19;19998;-60
2022/10/09 10:43:09;;;;;;;12.93;1.88;;;;;;;13.77;45.40;102585.28;7390028;19;19998;-59
2022/10/09 10:46:12;;;;;;;6.45;1.90;;;;;;;13.83;44.74;102575.00;7390082;19;20084;-60
2022/10/09 10:48:41;;;;;;;6.53;2.08;;;;;;;13.86;45.56;102583.41;7388279;19;20006;-59
2022/10/09 10:51:22;;;;;;;8.80;1.70;;;;;;;14.05;45.11;102572.13;7389156;19;20002;-60
2022/10/09 10:54:15;;;;;;;8.55;1.80;;;;;;;14.13;44.93;102570.50;7389330;19;20612;-60
2022/10/09 10:56:50;;;;;;;6.95;1.58;;;;;;;14.09;44.68;102563.22;7389793;19;20107;-59
2022/10/09 10:59:36;;;;;;;9.35;1.88;;;;;;;14.16;44.21;102569.03;7387190;19;20358;-59
2022/10/09 11:02:23;;;;;;;9.48;2.05;;;;;;;14.14;44.42;102565.81;7390002;19;20478;-59
2022/10/09 11:05:15;;;;;;;9.32;1.70;;;;;;;14.17;44.16;102570.66;7390170;19;20007;-59
2022/10/09 11:07:47;;;;;;;10.07;1.70;;;;;;;14.21;44.53;102568.88;7392843;19;20508;-59
2022/10/09 11:10:27;;;;;;;12.95;2.40;;;;;;;14.17;43.74;102565.19;7393468;19;20048;-59
2022/10/09 11:13:08;;;;;;;11.85;2.88;;;;;;;14.27;43.93;102567.59;7397243;19;20006;-59
2022/10/09 11:15:58;;;;;;;13.98;3.05;;;;;;;14.13;44.02;102555.94;7395185;19;20005;-59
2022/10/09 11:18:27;;;;;;;11.90;2.50;;;;;;;14.16;44.32;102558.88;7393610;19;20467;-58
2022/10/09 11:21:11;;;;;;;8.50;1.73;;;;;;;14.19;43.78;102549.97;7394927;19;20005;-58
2022/10/09 11:24:22;;;;;;;9.23;2.13;;;;;;;14.16;43.65;102549.81;7394350;19;20027;-59
2022/10/09 11:27:03;;;;;;;9.35;1.95;;;;;;;14.33;43.68;102547.06;7394014;19;20010;-59
2022/10/09 11:29:40;;;;;;;6.93;1.90;;;;;;;14.62;43.20;102546.38;7391336;19;20011;-59
2022/10/09 11:32:27;;;;;;;10.68;1.90;;;;;;;14.80;42.32;102538.13;7397210;19;20006;-59
2022/10/09 11:35:11;;;;;;;8.57;1.95;;;;;;;14.74;43.02;102537.44;7396555;19;20062;-59